Time;durP1;ratioP1;P1;durP2;ratioP2;P2;SDS_P1;SDS_P2;PMS_P1;PMS_P2;Temp;Humidity;BMP_temperature;BMP_pressure;BME280_temperature;BME280_humidity;BME280_pressure;Samples;Min_cycle;Max_cycle;Signal;HPM_P1;HPM_P2
2021/01/19 00:01:49;;;;;;;2.35;1.73;;;;;;;18.77;47.87;101382.41;5032112;28;20393;-71
2021/01/19 00:04:14;;;;;;;2.28;1.67;;;;;;;18.77;47.90;101392.88;5055992;28;20020;-71
2021/01/19 00:06:40;;;;;;;2.45;1.60;;;;;;;18.75;47.87;101373.66;5074104;28;20486;-72
2021/01/19 00:09:05;;;;;;;3.70;1.92;;;;;;;18.76;47.93;101364.94;5032450;28;20033;-71
2021/01/19 00:11:31;;;;;;;2.25;1.30;;;;;;;18.72;47.84;101356.19;5072309;28;20124;-72
2021/01/19 00:13:56;;;;;;;3.67;1.58;;;;;;;18.76;47.82;101363.19;5027654;28;20036;-72
2021/01/19 00:16:21;;;;;;;3.08;1.48;;;;;;;18.68;47.99;101345.72;5054115;28;20072;-71
2021/01/19 00:18:47;;;;;;;2.38;1.58;;;;;;;18.71;47.86;101350.94;5054337;28;20524;-71
2021/01/19 00:21:12;;;;;;;3.50;1.58;;;;;;;18.73;47.72;101344.84;5054175;28;20112;-71
2021/01/19 00:23:38;;;;;;;4.60;1.80;;;;;;;18.73;47.85;101336.09;5077316;28;20040;-71
2021/01/19 00:26:03;;;;;;;2.50;1.30;;;;;;;18.65;47.84;101309.03;5039561;28;20051;-71
2021/01/19 00:28:31;;;;;;;2.00;1.35;;;;;;;18.66;47.90;101314.28;5051603;28;20056;-71
2021/01/19 00:30:56;;;;;;;2.30;1.23;;;;;;;18.69;47.88;101314.28;5037364;28;20037;-71
2021/01/19 00:33:22;;;;;;;4.60;1.77;;;;;;;18.66;47.95;101298.56;5036789;28;20035;-71
2021/01/19 00:35:47;;;;;;;2.70;1.38;;;;;;;18.65;47.95;101293.31;5054617;28;20225;-71
2021/01/19 00:38:13;;;;;;;4.03;1.63;;;;;;;18.68;47.89;101293.31;5053700;28;20035;-71
2021/01/19 00:40:39;;;;;;;2.63;1.50;;;;;;;18.67;47.80;101281.97;5071614;28;20112;-71
2021/01/19 00:43:04;;;;;;;2.20;1.30;;;;;;;18.67;47.90;101273.22;5078119;28;20039;-71
2021/01/19 00:45:30;;;;;;;3.88;2.40;;;;;;;18.66;47.70;101264.50;5076731;28;20055;-71
2021/01/19 00:47:55;;;;;;;3.47;1.55;;;;;;;18.65;47.66;101256.63;5075881;28;20032;-71
2021/01/19 00:50:20;;;;;;;2.33;1.50;;;;;;;18.65;47.94;101254.03;5057277;28;20040;-71
2021/01/19 00:52:46;;;;;;;2.00;1.67;;;;;;;18.62;47.65;101244.41;5056377;28;20028;-71
2021/01/19 00:55:14;;;;;;;2.10;1.55;;;;;;;18.66;47.94;101245.28;5041812;28;20029;-71
2021/01/19 00:57:39;;;;;;;4.30;1.45;;;;;;;18.61;47.72;101240.03;5075909;28;20111;-71
2021/01/19 01:00:06;;;;;;;2.30;1.52;;;;;;;18.62;47.65;101238.28;5075373;28;20118;-71
2021/01/19 01:02:35;;;;;;;2.58;1.83;;;;;;;18.63;47.79;101234.81;5076453;28;20028;-71
2021/01/19 01:05:05;;;;;;;6.78;1.55;;;;;;;18.61;47.84;101226.94;5052176;28;20050;-71
2021/01/19 01:07:41;;;;;;;2.30;1.42;;;;;;;18.61;47.84;101223.44;5056023;28;20094;-71
2021/01/19 01:10:12;;;;;;;1.98;1.13;;;;;;;18.61;47.86;101208.59;5057108;28;20060;-71
2021/01/19 01:12:41;;;;;;;1.90;1.50;;;;;;;18.58;47.93;101203.34;5075468;28;20027;-71
2021/01/19 01:15:08;;;;;;;3.28;1.40;;;;;;;18.57;47.94;101198.94;5058807;28;20060;-71
2021/01/19 01:17:38;;;;;;;2.35;1.30;;;;;;;18.59;47.85;101199.00;5075781;28;20020;-71
2021/01/19 01:20:12;;;;;;;1.95;1.40;;;;;;;18.55;47.86;101185.88;5056446;28;20079;-72
2021/01/19 01:22:42;;;;;;;2.58;1.42;;;;;;;18.50;47.73;101179.75;5057320;28;20134;-71
2021/01/19 01:25:09;;;;;;;1.85;1.23;;;;;;;18.55;47.75;101174.53;5058046;28;20047;-71
2021/01/19 01:27:35;;;;;;;2.25;1.50;;;;;;;18.54;47.93;101165.81;5075933;28;20049;-71
2021/01/19 01:30:00;;;;;;;3.33;1.48;;;;;;;18.55;47.82;101166.69;5051906;28;20043;-71
2021/01/19 01:32:26;;;;;;;2.28;1.17;;;;;;;18.52;47.95;101156.19;5080607;28;20030;-71
2021/01/19 01:34:51;;;;;;;2.35;1.25;;;;;;;18.54;47.87;101155.31;5056646;28;20044;-71
2021/01/19 01:37:16;;;;;;;1.73;1.13;;;;;;;18.52;47.91;101151.84;5075252;28;20111;-71
2021/01/19 01:39:42;;;;;;;3.17;1.35;;;;;;;18.53;47.78;101147.47;5074577;28;20048;-71
2021/01/19 01:42:14;;;;;;;2.05;1.30;;;;;;;18.49;48.17;101138.72;5058659;28;20058;-71
2021/01/19 01:44:39;;;;;;;2.95;1.20;;;;;;;18.51;48.16;101128.25;5075603;28;20017;-71
2021/01/19 01:47:11;;;;;;;2.63;1.40;;;;;;;18.50;47.98;101129.13;5053658;28;20408;-71
2021/01/19 01:49:36;;;;;;;2.85;1.40;;;;;;;18.48;48.01;101121.28;5074155;28;20028;-71
2021/01/19 01:52:02;;;;;;;2.47;1.52;;;;;;;18.47;48.04;101108.16;5058280;28;20127;-71
2021/01/19 01:54:27;;;;;;;4.50;1.85;;;;;;;18.45;48.12;101104.69;5038763;28;20028;-71
2021/01/19 01:56:53;;;;;;;1.95;1.25;;;;;;;18.46;48.09;101099.44;5081546;28;20032;-72
2021/01/19 01:59:18;;;;;;;1.60;1.30;;;;;;;18.47;47.90;101101.19;5045121;28;20480;-71
2021/01/19 02:01:44;;;;;;;7.53;1.63;;;;;;;18.48;47.87;101102.06;5041310;28;20028;-71
2021/01/19 02:04:09;;;;;;;3.58;1.38;;;;;;;18.44;47.73;101089.84;5058205;28;20078;-71
2021/01/19 02:06:34;;;;;;;2.05;1.33;;;;;;;18.44;47.89;101076.75;5058426;28;20029;-71
2021/01/19 02:09:11;;;;;;;3.17;1.50;;;;;;;18.45;47.93;101081.97;5011631;28;20363;-71
2021/01/19 02:11:56;;;;;;;2.33;1.50;;;;;;;18.43;47.82;101065.44;5074058;28;20051;-71
2021/01/19 02:14:40;;;;;;;3.25;2.00;;;;;;;18.44;47.81;101063.66;5042514;28;20078;-71
2021/01/19 02:17:23;;;;;;;2.25;1.58;;;;;;;18.43;47.80;101056.69;5070650;28;20073;-71
2021/01/19 02:20:10;;;;;;;1.83;1.15;;;;;;;18.43;47.99;101041.00;5057069;28;20024;-71
2021/01/19 02:23:15;;;;;;;2.97;1.50;;;;;;;18.41;47.81;101016.56;5072610;28;20031;-71
2021/01/19 02:26:02;;;;;;;4.32;1.55;;;;;;;18.43;47.92;101020.91;5072678;28;20032;-71
2021/01/19 02:28:49;;;;;;;2.95;1.40;;;;;;;18.40;47.79;100999.09;5071749;28;20065;-72
2021/01/19 02:31:48;;;;;;;2.33;1.45;;;;;;;18.39;47.83;100997.34;5073371;28;20058;-71
2021/01/19 02:34:23;;;;;;;2.35;1.33;;;;;;;18.39;47.75;100992.13;5051027;28;20374;-71
2021/01/19 02:36:58;;;;;;;2.60;1.77;;;;;;;18.37;47.99;100984.25;5076764;28;20024;-71
2021/01/19 02:39:55;;;;;;;2.65;1.20;;;;;;;18.38;47.73;100985.13;5055831;28;20035;-71
2021/01/19 02:42:26;;;;;;;2.08;1.17;;;;;;;18.35;47.99;100977.28;5017330;28;20062;-71
2021/01/19 02:44:54;;;;;;;2.35;1.38;;;;;;;18.38;47.86;100972.03;5071182;28;20359;-71
2021/01/19 02:47:19;;;;;;;2.13;1.15;;;;;;;18.33;47.88;100963.31;5059208;28;20060;-71
2021/01/19 02:54:57;;;;;;;2.42;1.50;;;;;;;18.34;47.83;100924.03;5145568;22;20052;-71
2021/01/19 02:57:53;;;;;;;2.20;1.33;;;;;;;18.33;48.04;100924.91;5084510;28;20078;-71
2021/01/19 03:00:21;;;;;;;2.08;1.10;;;;;;;18.35;47.81;100907.47;5066706;28;20028;-71
2021/01/19 03:02:48;;;;;;;2.80;1.40;;;;;;;18.48;47.42;100913.53;5089586;28;20383;-71
2021/01/19 03:05:15;;;;;;;1.65;1.02;;;;;;;18.56;47.54;100909.16;5063087;28;20028;-72
2021/01/19 03:07:44;;;;;;;2.88;1.65;;;;;;;18.56;47.41;100906.53;5094251;28;20070;-71
2021/01/19 03:10:16;;;;;;;1.80;0.95;;;;;;;18.57;47.64;100898.63;5089942;28;20027;-71
2021/01/19 03:12:43;;;;;;;1.70;1.10;;;;;;;18.65;47.30;100888.19;5082341;28;20103;-71
2021/01/19 03:15:09;;;;;;;2.28;1.05;;;;;;;18.64;47.36;100883.81;5056353;28;20485;-71
2021/01/19 03:17:34;;;;;;;2.65;1.20;;;;;;;18.64;47.42;100886.44;5040628;28;20040;-71
2021/01/19 03:20:00;;;;;;;2.03;1.05;;;;;;;18.69;47.25;100873.31;5085066;28;20089;-71
2021/01/19 03:22:25;;;;;;;1.95;1.10;;;;;;;18.70;47.11;100867.19;5086833;28;20031;-71
2021/01/19 03:24:51;;;;;;;1.17;0.77;;;;;;;18.73;47.17;100875.91;5050894;28;20116;-71
2021/01/19 03:27:16;;;;;;;1.50;0.80;;;;;;;18.69;47.14;100866.34;5071852;28;20032;-71
2021/01/19 03:29:41;;;;;;;3.33;1.25;;;;;;;18.65;47.24;100861.97;5072620;28;20035;-71
2021/01/19 03:32:07;;;;;;;3.33;1.15;;;;;;;18.65;47.46;100851.50;5058398;28;20031;-71
2021/01/19 03:34:33;;;;;;;2.42;1.20;;;;;;;18.62;47.57;100843.66;5092146;28;20029;-71
2021/01/19 03:36:59;;;;;;;2.40;1.20;;;;;;;18.60;47.47;100836.69;5067506;28;20024;-71
2021/01/19 03:39:24;;;;;;;1.55;0.93;;;;;;;18.61;47.59;100835.81;5072544;28;20041;-71
2021/01/19 03:41:49;;;;;;;2.47;1.20;;;;;;;18.59;47.65;100833.19;5063112;28;20044;-71
2021/01/19 03:44:15;;;;;;;2.58;1.98;;;;;;;18.56;47.80;100828.81;5089617;28;20024;-71
2021/01/19 03:46:40;;;;;;;3.42;1.65;;;;;;;18.57;47.56;100824.44;5082512;28;20031;-71
2021/01/19 03:49:05;;;;;;;1.35;0.80;;;;;;;18.53;47.54;100823.59;5088839;28;20024;-71
2021/01/19 03:51:31;;;;;;;2.13;1.27;;;;;;;18.49;47.65;100821.88;5067103;28;20550;-71
2021/01/19 03:53:56;;;;;;;2.50;1.25;;;;;;;18.49;47.46;100810.53;5068192;28;20094;-71
2021/01/19 03:56:21;;;;;;;2.85;1.17;;;;;;;18.44;47.56;100800.06;5066820;28;20036;-71
2021/01/19 03:58:47;;;;;;;1.35;1.10;;;;;;;18.48;47.72;100795.69;5058805;28;20117;-71
2021/01/19 04:01:13;;;;;;;1.65;0.85;;;;;;;18.46;47.82;100792.19;5079936;28;20028;-71
2021/01/19 04:03:39;;;;;;;1.30;1.05;;;;;;;18.45;47.65;100795.69;5074139;28;20028;-71
2021/01/19 04:06:08;;;;;;;1.48;0.95;;;;;;;18.41;47.75;100779.16;5081826;28;20028;-71
2021/01/19 04:08:38;;;;;;;2.63;1.25;;;;;;;18.41;48.02;100763.44;5059909;28;20032;-71
2021/01/19 04:11:04;;;;;;;2.30;1.08;;;;;;;18.42;47.80;100770.44;5056136;28;20027;-71
2021/01/19 04:13:30;;;;;;;2.55;0.95;;;;;;;18.42;47.58;100762.56;5073529;28;20029;-71
2021/01/19 04:15:56;;;;;;;2.08;1.38;;;;;;;18.41;47.77;100746.88;5072445;28;20496;-71
2021/01/19 04:18:22;;;;;;;1.70;1.27;;;;;;;18.36;47.41;100743.41;5070832;28;20562;-71
2021/01/19 04:20:47;;;;;;;2.70;1.35;;;;;;;18.37;48.03;100738.16;5059654;28;20107;-71
2021/01/19 04:23:14;;;;;;;3.33;1.10;;;;;;;18.35;47.66;100724.19;5061191;28;20111;-71
2021/01/19 04:25:46;;;;;;;1.35;0.95;;;;;;;18.36;47.51;100730.31;5061895;28;20058;-71
2021/01/19 04:28:12;;;;;;;2.92;1.73;;;;;;;18.37;47.94;100727.69;5062097;28;20032;-71
2021/01/19 04:30:38;;;;;;;2.28;1.10;;;;;;;18.34;47.67;100711.97;5067489;28;20054;-71
2021/01/19 04:33:04;;;;;;;1.60;1.02;;;;;;;18.32;47.75;100702.41;5058413;28;20055;-71
2021/01/19 04:35:29;;;;;;;1.55;0.95;;;;;;;18.35;47.63;100711.09;5075702;28;20048;-71
2021/01/19 04:37:55;;;;;;;1.98;1.00;;;;;;;18.31;47.95;100698.03;5054856;28;20056;-71
2021/01/19 04:40:20;;;;;;;1.23;1.10;;;;;;;18.31;47.64;100698.03;5048645;28;20070;-71
2021/01/19 04:42:46;;;;;;;2.40;1.50;;;;;;;18.33;47.94;100696.28;5071995;28;20025;-71
2021/01/19 04:45:11;;;;;;;2.33;1.33;;;;;;;18.29;47.93;100689.34;5079738;28;20055;-71
2021/01/19 04:47:38;;;;;;;3.13;2.15;;;;;;;18.32;47.83;100670.97;5063427;28;20384;-71
2021/01/19 04:50:07;;;;;;;2.30;1.17;;;;;;;18.28;47.60;100677.13;5071836;28;20027;-71
2021/01/19 04:52:33;;;;;;;1.40;0.82;;;;;;;18.27;47.87;100659.69;5080327;28;20028;-71
2021/01/19 04:55:23;;;;;;;2.63;1.08;;;;;;;18.29;47.72;100650.97;5072984;28;20040;-71
2021/01/19 04:58:13;;;;;;;3.08;1.42;;;;;;;18.26;47.76;100640.50;5047522;28;20025;-71
2021/01/19 05:00:38;;;;;;;3.67;1.35;;;;;;;18.26;47.85;100637.00;5078669;28;20028;-71
2021/01/19 05:03:21;;;;;;;1.33;0.88;;;;;;;18.26;47.66;100635.25;5081535;28;20036;-71
2021/01/19 05:05:46;;;;;;;1.15;0.82;;;;;;;18.27;48.01;100626.53;5073850;28;20482;-71
2021/01/19 05:08:15;;;;;;;1.73;1.13;;;;;;;18.28;47.77;100622.16;5075614;28;20063;-71
2021/01/19 05:10:40;;;;;;;2.10;1.27;;;;;;;18.25;47.99;100611.72;5073002;28;20028;-71
2021/01/19 05:13:13;;;;;;;1.63;0.88;;;;;;;18.23;47.87;100603.00;5054913;28;20082;-71
2021/01/19 05:15:46;;;;;;;1.77;1.13;;;;;;;18.24;47.94;100599.50;5041735;28;22291;-71
2021/01/19 05:18:15;;;;;;;2.28;1.25;;;;;;;18.24;47.81;100605.63;5038591;28;20052;-71
2021/01/19 05:20:45;;;;;;;1.15;0.88;;;;;;;18.23;47.81;100596.03;5074280;28;20093;-71
2021/01/19 05:23:21;;;;;;;2.10;1.00;;;;;;;18.24;48.00;100594.28;5072445;28;20023;-71
2021/01/19 05:26:00;;;;;;;1.77;1.13;;;;;;;18.17;47.95;100568.16;5060414;28;20032;-71
2021/01/19 05:28:34;;;;;;;1.83;1.13;;;;;;;18.23;47.93;100571.59;5076996;28;20082;-71
2021/01/19 05:31:03;;;;;;;1.88;1.02;;;;;;;18.20;47.70;100567.25;5078159;28;20481;-71
2021/01/19 05:33:28;;;;;;;1.35;0.85;;;;;;;18.21;47.81;100553.28;5063010;28;20086;-71
2021/01/19 05:36:07;;;;;;;1.85;1.30;;;;;;;18.19;47.99;100544.56;5065711;28;20028;-77
2021/01/19 05:38:47;;;;;;;1.73;1.30;;;;;;;18.18;47.75;100530.63;5076079;28;20033;-78
2021/01/19 05:41:42;;;;;;;1.45;1.00;;;;;;;18.18;47.78;100529.75;5065504;28;20059;-78
2021/01/19 05:44:14;;;;;;;1.50;1.05;;;;;;;18.26;47.70;100522.72;5081783;28;20492;-74
2021/01/19 05:46:44;;;;;;;1.83;0.82;;;;;;;18.31;47.43;100513.06;5046793;28;20520;-78
2021/01/19 05:49:14;;;;;;;1.92;0.93;;;;;;;18.35;47.58;100501.69;5072822;28;20028;-79
2021/01/19 05:51:45;;;;;;;2.30;0.98;;;;;;;18.54;47.05;100503.25;5074930;28;20033;-78
2021/01/19 05:54:27;;;;;;;1.40;1.10;;;;;;;18.60;46.78;100472.66;5075585;28;20048;-77
2021/01/19 05:57:08;;;;;;;1.50;1.00;;;;;;;18.56;46.81;100463.94;5080827;28;20031;-77
2021/01/19 05:59:34;;;;;;;1.10;0.80;;;;;;;18.63;46.77;100468.25;5081036;28;20020;-77
2021/01/19 06:02:02;;;;;;;1.27;0.98;;;;;;;18.73;46.64;100445.44;5064783;28;20446;-77
2021/01/19 06:04:54;;;;;;;1.40;0.85;;;;;;;18.76;46.67;100440.16;5084770;28;20020;-79
2021/01/19 06:07:25;;;;;;;1.25;0.90;;;;;;;18.78;46.82;100444.50;5064613;28;20036;-79
2021/01/19 06:09:53;;;;;;;2.75;0.98;;;;;;;18.77;46.79;100424.44;5091822;28;20024;-78
2021/01/19 06:12:20;;;;;;;1.10;0.90;;;;;;;18.81;46.58;100425.25;5064227;28;20096;-78
2021/01/19 06:14:47;;;;;;;2.30;1.10;;;;;;;18.83;46.60;100428.72;5054053;28;20032;-79
2021/01/19 06:17:15;;;;;;;2.78;1.30;;;;;;;18.77;46.84;100423.56;5086746;28;20032;-79
2021/01/19 06:19:42;;;;;;;2.05;1.30;;;;;;;18.80;46.72;100408.69;5064906;28;20032;-78
2021/01/19 06:22:10;;;;;;;4.25;1.33;;;;;;;18.91;46.68;100411.16;5048747;28;20421;-75
2021/01/19 06:24:39;;;;;;;4.88;1.70;;;;;;;18.92;46.89;100405.03;5082482;28;20029;-78
2021/01/19 06:27:06;;;;;;;4.85;1.75;;;;;;;18.87;46.85;100398.97;5058699;28;20031;-79
2021/01/19 06:29:31;;;;;;;3.38;1.70;;;;;;;18.97;46.77;100394.47;5059970;28;20167;-75
2021/01/19 06:31:59;;;;;;;3.55;2.03;;;;;;;19.01;46.81;100399.66;5059529;28;20489;-78
2021/01/19 06:34:33;;;;;;;3.13;1.40;;;;;;;18.91;46.99;100374.47;5057001;28;20429;-79
2021/01/19 06:36:59;;;;;;;3.63;2.00;;;;;;;18.95;47.10;100368.31;5048168;28;20470;-78
2021/01/19 06:39:36;;;;;;;3.20;1.77;;;;;;;19.02;46.96;100359.47;5072310;28;20048;-78
2021/01/19 06:42:06;;;;;;;6.53;2.05;;;;;;;18.99;46.98;100354.25;5039577;28;20115;-78
2021/01/19 06:44:40;;;;;;;4.13;1.88;;;;;;;18.91;47.11;100349.13;5043349;28;20056;-78
2021/01/19 06:47:06;;;;;;;6.18;1.92;;;;;;;19.03;46.99;100331.50;5046647;28;20028;-78
2021/01/19 06:49:37;;;;;;;4.47;1.95;;;;;;;19.02;46.96;100330.63;5069308;28;20025;-79
2021/01/19 06:52:05;;;;;;;6.00;2.15;;;;;;;18.93;47.23;100328.16;5054694;28;20032;-80
2021/01/19 06:54:52;;;;;;;7.07;2.08;;;;;;;19.02;46.95;100325.38;5053312;28;20037;-78
2021/01/19 06:57:31;;;;;;;6.03;2.10;;;;;;;19.06;46.96;100320.97;5064339;28;20028;-78
2021/01/19 07:00:18;;;;;;;4.25;1.95;;;;;;;18.99;47.02;100322.81;5061208;28;20035;-78
2021/01/19 07:02:45;;;;;;;7.63;2.30;;;;;;;19.03;47.27;100306.16;5061507;28;20097;-79
2021/01/19 07:05:13;;;;;;;3.35;1.83;;;;;;;19.03;46.81;100287.81;5056582;28;20050;-79
2021/01/19 07:07:54;;;;;;;3.30;1.88;;;;;;;19.01;47.01;100283.47;5057694;28;20028;-79
2021/01/19 07:10:49;;;;;;;4.10;1.85;;;;;;;19.03;47.01;100311.41;5062953;28;20056;-78
2021/01/19 07:13:21;;;;;;;3.63;1.67;;;;;;;19.10;46.96;100302.53;5062826;28;20108;-78
2021/01/19 07:15:58;;;;;;;4.35;2.42;;;;;;;19.05;47.07;100296.53;5055275;28;20389;-71
2021/01/19 07:18:45;;;;;;;2.35;1.60;;;;;;;19.07;47.29;100283.41;5056588;28;20029;-72
2021/01/19 07:21:20;;;;;;;4.82;1.20;;;;;;;19.10;46.99;100271.09;5054363;28;20028;-72
2021/01/19 07:23:48;;;;;;;4.25;1.92;;;;;;;19.06;47.13;100253.72;5069097;28;20104;-72
2021/01/19 07:26:38;;;;;;;3.90;1.70;;;;;;;19.09;47.08;100248.38;5052728;28;20513;-72
2021/01/19 07:29:03;;;;;;;3.75;1.75;;;;;;;19.12;46.90;100245.72;5040057;28;20078;-72
2021/01/19 07:31:29;;;;;;;5.78;2.25;;;;;;;19.10;47.00;100244.88;5054893;28;20040;-72
2021/01/19 07:33:57;;;;;;;4.97;1.60;;;;;;;19.02;47.12;100235.44;5034207;28;20032;-72
2021/01/19 07:36:25;;;;;;;2.95;1.55;;;;;;;18.98;47.35;100252.94;5035125;28;20048;-72
2021/01/19 07:38:50;;;;;;;3.05;1.45;;;;;;;18.93;47.44;100252.19;5071826;28;20039;-72
2021/01/19 07:41:29;;;;;;;3.38;1.60;;;;;;;18.89;47.42;100234.78;5067123;28;20028;-72
2021/01/19 07:43:55;;;;;;;2.83;1.40;;;;;;;18.88;47.54;100243.50;5066489;28;20020;-72
2021/01/19 07:46:28;;;;;;;5.63;2.00;;;;;;;18.87;47.17;100229.53;5053933;28;20064;-72
2021/01/19 07:49:08;;;;;;;4.03;1.60;;;;;;;18.91;47.57;100238.22;5058583;28;20031;-72
2021/01/19 07:51:53;;;;;;;5.90;1.42;;;;;;;19.06;47.28;100230.13;5081727;28;20059;-71
2021/01/19 07:54:22;;;;;;;3.88;1.52;;;;;;;19.05;47.49;100241.50;5077428;28;20508;-71
2021/01/19 07:56:47;;;;;;;3.72;1.85;;;;;;;19.10;47.33;100241.41;5061436;28;20031;-72
2021/01/19 07:59:19;;;;;;;1.90;1.20;;;;;;;19.18;47.19;100236.91;5026476;28;20024;-72
2021/01/19 08:01:55;;;;;;;3.38;1.35;;;;;;;19.15;47.11;100248.31;5065572;28;20375;-72
2021/01/19 08:04:31;;;;;;;3.05;1.30;;;;;;;19.10;47.29;100220.44;5051931;28;20044;-71
2021/01/19 08:06:57;;;;;;;3.80;1.58;;;;;;;19.19;47.17;100242.13;5052475;28;20020;-71
2021/01/19 08:09:23;;;;;;;3.20;1.77;;;;;;;19.20;47.14;100230.75;5037428;28;20032;-72
2021/01/19 08:12:08;;;;;;;3.63;1.60;;;;;;;19.13;47.37;100231.72;5070378;28;20027;-72
2021/01/19 08:14:38;;;;;;;3.72;1.30;;;;;;;19.20;47.13;100224.66;5070193;28;20025;-71
2021/01/19 08:17:04;;;;;;;3.55;1.50;;;;;;;19.23;47.02;100240.28;5070016;28;20405;-71
2021/01/19 08:19:35;;;;;;;4.38;1.63;;;;;;;19.19;47.22;100234.25;5071762;28;20520;-71
2021/01/19 08:22:01;;;;;;;1.95;1.20;;;;;;;19.20;47.25;100230.75;5072927;28;20373;-71
2021/01/19 08:24:26;;;;;;;2.30;1.17;;;;;;;19.25;47.06;100235.91;5054274;28;20040;-72
2021/01/19 08:26:52;;;;;;;2.45;1.42;;;;;;;19.20;47.18;100227.25;5037807;28;20036;-72
2021/01/19 08:29:22;;;;;;;1.73;1.05;;;;;;;19.22;47.13;100225.47;5053294;28;20041;-72
2021/01/19 08:32:01;;;;;;;2.28;1.25;;;;;;;19.26;47.14;100230.63;5037934;28;20095;-71
2021/01/19 08:34:29;;;;;;;2.00;1.30;;;;;;;19.25;47.15;100228.91;5068619;28;20040;-71
2021/01/19 08:36:56;;;;;;;3.85;1.30;;;;;;;19.22;47.13;100239.44;5053819;28;20381;-71
2021/01/19 08:39:22;;;;;;;4.13;1.13;;;;;;;19.25;47.18;100228.03;5051183;28;20031;-71
2021/01/19 08:41:49;;;;;;;3.05;1.65;;;;;;;19.26;47.01;100237.63;5053295;28;20020;-72
2021/01/19 08:44:16;;;;;;;2.45;1.60;;;;;;;19.24;47.12;100237.66;5050272;28;20051;-72
2021/01/19 08:46:42;;;;;;;4.03;1.38;;;;;;;19.30;47.08;100241.94;5052003;28;20032;-72
2021/01/19 08:49:12;;;;;;;2.95;1.25;;;;;;;19.30;47.20;100234.06;5070266;28;20094;-72
2021/01/19 08:51:42;;;;;;;2.05;1.17;;;;;;;19.25;47.12;100220.16;5061272;28;20032;-72
2021/01/19 08:54:08;;;;;;;2.83;1.42;;;;;;;19.30;47.11;100238.44;5050108;28;20159;-72
2021/01/19 08:56:41;;;;;;;2.78;1.35;;;;;;;19.33;47.07;100241.03;5049115;28;20383;-72
2021/01/19 08:59:10;;;;;;;2.17;1.20;;;;;;;19.30;47.19;100241.06;5050096;28;20142;-72
2021/01/19 09:01:55;;;;;;;3.45;1.05;;;;;;;19.30;46.99;100238.44;5050951;28;20428;-72
2021/01/19 09:04:28;;;;;;;2.83;1.35;;;;;;;19.37;47.06;100232.19;5079890;28;20029;-72
2021/01/19 09:07:11;;;;;;;2.95;1.27;;;;;;;19.33;47.21;100241.03;5066147;28;20021;-72
2021/01/19 09:09:37;;;;;;;2.05;1.10;;;;;;;19.30;47.14;100249.78;5046507;28;20466;-72
2021/01/19 09:12:14;;;;;;;3.13;1.15;;;;;;;19.34;47.26;100248.00;5054916;28;20109;-71
2021/01/19 09:14:40;;;;;;;4.30;1.95;;;;;;;19.36;47.12;100254.91;5046188;28;20453;-72
2021/01/19 09:17:05;;;;;;;1.70;1.00;;;;;;;19.35;47.42;100258.44;5048897;28;20032;-72
2021/01/19 09:19:31;;;;;;;3.00;1.50;;;;;;;19.28;47.32;100254.19;5048208;28;20127;-72
2021/01/19 09:21:56;;;;;;;1.83;0.95;;;;;;;19.28;47.56;100256.81;5053839;28;20050;-72
2021/01/19 09:24:22;;;;;;;2.70;1.45;;;;;;;19.30;47.57;100254.19;5063100;28;20113;-72
2021/01/19 09:27:00;;;;;;;2.80;1.38;;;;;;;19.27;47.53;100262.94;5040242;28;20082;-72
2021/01/19 09:29:31;;;;;;;2.17;0.93;;;;;;;19.28;47.69;100264.69;5044137;28;20462;-72
2021/01/19 09:31:58;;;;;;;1.85;1.15;;;;;;;19.33;47.55;100256.75;5074214;28;20437;-73
2021/01/19 09:34:25;;;;;;;3.38;1.08;;;;;;;19.29;47.51;100263.78;5070034;28;20467;-72
2021/01/19 09:36:51;;;;;;;1.85;1.20;;;;;;;19.27;47.51;100276.94;5048427;28;20056;-72
2021/01/19 09:39:26;;;;;;;2.45;1.10;;;;;;;19.32;47.65;100279.47;5070508;28;20043;-72
2021/01/19 09:41:53;;;;;;;2.60;1.25;;;;;;;19.32;47.45;100276.84;5064095;28;20029;-72
2021/01/19 09:44:19;;;;;;;1.90;0.98;;;;;;;19.28;47.41;100281.28;5072439;28;20390;-72
2021/01/19 09:46:47;;;;;;;2.30;1.17;;;;;;;19.33;47.49;100286.47;5068066;28;20036;-72
2021/01/19 09:49:16;;;;;;;3.58;1.20;;;;;;;19.31;47.55;100287.38;5060291;28;20025;-72
2021/01/19 09:51:42;;;;;;;2.30;1.33;;;;;;;19.29;47.68;100287.38;5070860;28;20035;-72
2021/01/19 09:54:07;;;;;;;1.90;0.75;;;;;;;19.34;47.64;100303.06;5054089;28;20490;-72
2021/01/19 09:56:32;;;;;;;1.83;0.80;;;;;;;19.35;47.38;100299.50;5072262;28;20120;-72
2021/01/19 09:59:09;;;;;;;2.80;1.27;;;;;;;19.35;47.49;100307.38;5073054;28;20033;-72
2021/01/19 10:01:35;;;;;;;2.25;1.02;;;;;;;19.32;47.43;100302.22;5051812;28;20032;-72
2021/01/19 10:04:00;;;;;;;3.03;1.17;;;;;;;19.35;47.60;100307.38;5058301;28;20028;-72
2021/01/19 10:06:26;;;;;;;2.45;1.30;;;;;;;19.34;47.35;100309.16;5067118;28;20040;-72
2021/01/19 10:08:53;;;;;;;2.83;1.23;;;;;;;19.30;47.70;100310.09;5053914;28;20086;-72
2021/01/19 10:11:33;;;;;;;1.70;1.10;;;;;;;19.37;47.50;100316.94;5064200;28;20036;-72
2021/01/19 10:14:17;;;;;;;2.03;1.10;;;;;;;19.36;47.38;100314.34;5069528;28;20041;-77
2021/01/19 10:16:47;;;;;;;2.40;1.20;;;;;;;19.36;47.72;100320.47;5069669;28;20021;-76
2021/01/19 10:19:26;;;;;;;4.18;1.35;;;;;;;19.37;47.52;100323.94;5071553;28;20021;-76
2021/01/19 10:21:54;;;;;;;1.90;0.90;;;;;;;19.37;47.51;100316.94;5062818;28;20500;-77
2021/01/19 10:24:20;;;;;;;2.05;1.27;;;;;;;19.37;47.39;100332.69;5072813;28;20039;-76
2021/01/19 10:27:07;;;;;;;2.40;0.80;;;;;;;19.38;47.45;100333.56;5068933;28;20036;-77
2021/01/19 10:29:38;;;;;;;2.78;1.00;;;;;;;19.42;47.44;100337.88;5066576;28;20032;-76
2021/01/19 10:32:06;;;;;;;3.03;1.10;;;;;;;19.40;47.56;100342.25;5063819;28;20028;-76
2021/01/19 10:34:35;;;;;;;2.65;1.25;;;;;;;19.43;47.55;100342.22;5069490;28;20024;-77
2021/01/19 10:37:02;;;;;;;2.30;1.02;;;;;;;19.43;47.48;100342.22;5069783;28;20028;-77
2021/01/19 10:39:29;;;;;;;2.67;1.20;;;;;;;19.40;47.63;100342.25;5074654;28;20029;-77
2021/01/19 10:41:57;;;;;;;1.83;1.00;;;;;;;19.38;47.60;100339.66;5052556;28;20024;-77
2021/01/19 10:44:24;;;;;;;3.45;1.40;;;;;;;19.35;47.67;100342.31;5071536;28;20136;-77
2021/01/19 10:47:00;;;;;;;8.70;1.60;;;;;;;19.33;47.72;100340.66;5069346;28;20036;-74
2021/01/19 10:49:30;;;;;;;1.67;1.00;;;;;;;19.27;47.94;100329.34;5050128;28;20548;-76
2021/01/19 10:51:57;;;;;;;2.47;1.02;;;;;;;19.27;47.88;100338.97;5054436;28;20474;-76
2021/01/19 10:54:24;;;;;;;2.85;1.27;;;;;;;19.34;48.06;100330.13;5071696;28;20055;-72
2021/01/19 10:57:07;;;;;;;3.30;1.25;;;;;;;19.39;47.81;100346.63;5054319;28;20029;-72
2021/01/19 10:59:33;;;;;;;4.32;1.25;;;;;;;19.37;47.78;100337.06;5062134;28;20043;-72
2021/01/19 11:01:59;;;;;;;1.58;0.93;;;;;;;19.39;47.74;100341.41;5064456;28;20025;-72
2021/01/19 11:04:24;;;;;;;3.08;1.15;;;;;;;19.42;47.55;100345.72;5047770;28;20540;-72
2021/01/19 11:06:50;;;;;;;1.92;1.15;;;;;;;19.44;47.58;100352.69;5064142;28;20032;-72
2021/01/19 11:09:15;;;;;;;2.47;1.55;;;;;;;19.43;47.61;100343.09;5068577;28;20378;-72
2021/01/19 11:11:41;;;;;;;3.10;1.17;;;;;;;19.46;47.73;100348.28;5064668;28;20033;-72
2021/01/19 11:14:08;;;;;;;1.50;0.80;;;;;;;19.46;47.60;100355.28;5070734;28;20481;-72
2021/01/19 11:16:37;;;;;;;2.53;1.00;;;;;;;19.46;47.58;100352.66;5046170;28;20052;-72
2021/01/19 11:19:04;;;;;;;3.00;1.15;;;;;;;19.47;47.45;100352.66;5068322;28;20514;-72
2021/01/19 11:21:31;;;;;;;2.55;1.15;;;;;;;19.47;47.64;100352.66;5049516;28;20032;-72
2021/01/19 11:23:56;;;;;;;2.83;1.40;;;;;;;19.47;47.74;100355.25;5070646;28;20374;-72
2021/01/19 11:26:23;;;;;;;2.17;0.88;;;;;;;19.49;47.76;100365.72;5066021;28;20025;-72
2021/01/19 11:28:48;;;;;;;1.73;0.90;;;;;;;19.48;47.66;100359.59;5052292;28;20389;-71
2021/01/19 11:31:19;;;;;;;1.73;0.95;;;;;;;19.49;47.76;100358.72;5049657;28;20112;-71
2021/01/19 11:33:44;;;;;;;2.53;1.10;;;;;;;19.46;47.64;100358.78;5059734;28;20028;-72
2021/01/19 11:36:17;;;;;;;1.60;0.90;;;;;;;19.53;47.64;100356.94;5066659;28;20038;-71
2021/01/19 11:38:42;;;;;;;2.97;1.43;;;;;;;19.54;47.83;100356.91;5066987;28;20029;-71
2021/01/19 11:41:07;;;;;;;2.10;0.70;;;;;;;19.53;47.93;100365.66;5052657;28;20635;-72
2021/01/19 11:43:33;;;;;;;2.72;0.80;;;;;;;19.54;47.92;100349.03;5066032;28;20382;-72